sensor_id;sensor_type;location;lat;lon;timestamp;pressure;altitude;pressure_sealevel;temperature;humidity
80988;BME280;70452;39.386;-3.210;2024-03-08T00:00:33;93282.84;;;3.75;100.00
80988;BME280;70452;39.386;-3.210;2024-03-08T00:03:12;93284.16;;;3.68;100.00
80988;BME280;70452;39.386;-3.210;2024-03-08T00:05:50;93286.53;;;3.59;100.00
80988;BME280;70452;39.386;-3.210;2024-03-08T00:08:27;93287.09;;;3.56;100.00
80988;BME280;70452;39.386;-3.210;2024-03-08T00:10:59;93280.28;;;3.48;100.00
80988;BME280;70452;39.386;-3.210;2024-03-08T00:13:40;93278.13;;;3.45;100.00
80988;BME280;70452;39.386;-3.210;2024-03-08T00:16:17;93281.38;;;3.42;100.00
80988;BME280;70452;39.386;-3.210;2024-03-08T00:19:14;93280.47;;;3.31;100.00
80988;BME280;70452;39.386;-3.210;2024-03-08T00:21:46;93277.50;;;3.28;100.00
80988;BME280;70452;39.386;-3.210;2024-03-08T00:24:35;93280.41;;;3.21;100.00
80988;BME280;70452;39.386;-3.210;2024-03-08T00:27:08;93269.88;;;3.19;100.00
80988;BME280;70452;39.386;-3.210;2024-03-08T00:29:44;93267.75;;;3.16;100.00
80988;BME280;70452;39.386;-3.210;2024-03-08T00:32:13;93268.00;;;3.15;100.00
80988;BME280;70452;39.386;-3.210;2024-03-08T00:34:56;93267.16;;;3.14;100.00
80988;BME280;70452;39.386;-3.210;2024-03-08T00:37:31;93269.59;;;3.16;100.00
80988;BME280;70452;39.386;-3.210;2024-03-08T00:40:22;93265.34;;;3.20;100.00
80988;BME280;70452;39.386;-3.210;2024-03-08T00:43:19;93259.97;;;3.25;100.00
80988;BME280;70452;39.386;-3.210;2024-03-08T00:45:50;93269.19;;;3.34;100.00
80988;BME280;70452;39.386;-3.210;2024-03-08T00:48:19;93262.44;;;3.32;100.00
80988;BME280;70452;39.386;-3.210;2024-03-08T00:50:47;93266.19;;;3.31;100.00
80988;BME280;70452;39.386;-3.210;2024-03-08T00:53:31;93263.00;;;3.34;100.00
80988;BME280;70452;39.386;-3.210;2024-03-08T00:55:56;93263.25;;;3.32;100.00
80988;BME280;70452;39.386;-3.210;2024-03-08T00:58:23;93267.31;;;3.40;100.00
80988;BME280;70452;39.386;-3.210;2024-03-08T01:00:56;93264.69;;;3.50;100.00
80988;BME280;70452;39.386;-3.210;2024-03-08T01:03:30;93264.19;;;3.59;100.00
80988;BME280;70452;39.386;-3.210;2024-03-08T01:05:59;93265.59;;;3.66;100.00
80988;BME280;70452;39.386;-3.210;2024-03-08T01:08:26;93265.88;;;3.70;100.00
80988;BME280;70452;39.386;-3.210;2024-03-08T01:11:01;93260.75;;;3.73;100.00
80988;BME280;70452;39.386;-3.210;2024-03-08T01:13:52;93270.47;;;3.85;100.00
80988;BME280;70452;39.386;-3.210;2024-03-08T01:16:23;93264.84;;;3.91;100.00
80988;BME280;70452;39.386;-3.210;2024-03-08T01:19:18;93268.88;;;3.84;100.00
80988;BME280;70452;39.386;-3.210;2024-03-08T01:24:48;93265.69;;;3.92;100.00
80988;BME280;70452;39.386;-3.210;2024-03-08T01:27:24;93273.75;;;3.97;100.00
80988;BME280;70452;39.386;-3.210;2024-03-08T01:30:04;93253.28;;;4.01;100.00
80988;BME280;70452;39.386;-3.210;2024-03-08T01:32:41;93254.91;;;4.07;100.00
80988;BME280;70452;39.386;-3.210;2024-03-08T01:35:07;93256.03;;;4.11;100.00
80988;BME280;70452;39.386;-3.210;2024-03-08T01:37:41;93244.66;;;3.31;100.00
80988;BME280;70452;39.386;-3.210;2024-03-08T01:40:09;93250.38;;;2.97;100.00
80988;BME280;70452;39.386;-3.210;2024-03-08T01:42:43;93240.31;;;2.82;100.00
80988;BME280;70452;39.386;-3.210;2024-03-08T01:45:21;93245.56;;;2.61;100.00
80988;BME280;70452;39.386;-3.210;2024-03-08T01:47:56;93247.16;;;2.62;100.00
80988;BME280;70452;39.386;-3.210;2024-03-08T01:50:33;93240.38;;;2.55;100.00
80988;BME280;70452;39.386;-3.210;2024-03-08T01:53:02;93233.88;;;2.51;100.00
80988;BME280;70452;39.386;-3.210;2024-03-08T01:55:42;93241.41;;;2.49;100.00
80988;BME280;70452;39.386;-3.210;2024-03-08T01:58:15;93231.16;;;2.46;100.00
80988;BME280;70452;39.386;-3.210;2024-03-08T02:00:50;93230.91;;;2.47;100.00
80988;BME280;70452;39.386;-3.210;2024-03-08T02:03:27;93227.16;;;2.48;100.00
80988;BME280;70452;39.386;-3.210;2024-03-08T02:06:24;93223.63;;;2.42;100.00
80988;BME280;70452;39.386;-3.210;2024-03-08T02:08:53;93223.31;;;2.44;100.00
80988;BME280;70452;39.386;-3.210;2024-03-08T02:11:24;93216.34;;;2.43;100.00
80988;BME280;70452;39.386;-3.210;2024-03-08T02:13:54;93220.63;;;2.44;100.00
80988;BME280;70452;39.386;-3.210;2024-03-08T02:16:31;93214.91;;;2.35;100.00
80988;BME280;70452;39.386;-3.210;2024-03-08T02:19:31;93228.66;;;2.39;100.00
80988;BME280;70452;39.386;-3.210;2024-03-08T02:22:05;93221.72;;;2.43;100.00
80988;BME280;70452;39.386;-3.210;2024-03-08T02:24:32;93221.72;;;2.43;100.00
80988;BME280;70452;39.386;-3.210;2024-03-08T02:27:22;93216.13;;;2.50;100.00
80988;BME280;70452;39.386;-3.210;2024-03-08T02:30:00;93208.31;;;2.48;100.00
80988;BME280;70452;39.386;-3.210;2024-03-08T02:32:36;93204.81;;;2.48;100.00
80988;BME280;70452;39.386;-3.210;2024-03-08T02:35:16;93189.78;;;2.52;100.00
80988;BME280;70452;39.386;-3.210;2024-03-08T02:37:48;93184.41;;;2.52;100.00
80988;BME280;70452;39.386;-3.210;2024-03-08T02:40:25;93185.25;;;2.57;100.00
80988;BME280;70452;39.386;-3.210;2024-03-08T02:43:02;93173.34;;;2.48;100.00
80988;BME280;70452;39.386;-3.210;2024-03-08T02:45:44;93179.03;;;2.52;100.00
80988;BME280;70452;39.386;-3.210;2024-03-08T02:48:21;93172.25;;;2.49;100.00
80988;BME280;70452;39.386;-3.210;2024-03-08T02:50:52;93170.75;;;2.58;100.00
80988;BME280;70452;39.386;-3.210;2024-03-08T02:53:28;93169.13;;;2.62;100.00
80988;BME280;70452;39.386;-3.210;2024-03-08T02:55:59;93166.75;;;2.66;100.00
80988;BME280;70452;39.386;-3.210;2024-03-08T02:58:37;93169.69;;;2.65;100.00
80988;BME280;70452;39.386;-3.210;2024-03-08T03:01:08;93156.75;;;2.56;100.00
80988;BME280;70452;39.386;-3.210;2024-03-08T03:03:44;93162.97;;;2.62;100.00
80988;BME280;70452;39.386;-3.210;2024-03-08T03:06:35;93165.38;;;2.63;100.00
80988;BME280;70452;39.386;-3.210;2024-03-08T03:09:01;93157.91;;;2.71;100.00
80988;BME280;70452;39.386;-3.210;2024-03-08T03:11:43;93153.00;;;2.62;100.00
80988;BME280;70452;39.386;-3.210;2024-03-08T03:14:15;93147.53;;;2.52;100.00
80988;BME280;70452;39.386;-3.210;2024-03-08T03:16:52;93147.88;;;2.61;100.00
80988;BME280;70452;39.386;-3.210;2024-03-08T03:19:20;93144.34;;;2.55;100.00
80988;BME280;70452;39.386;-3.210;2024-03-08T03:21:53;93148.41;;;2.58;100.00
80988;BME280;70452;39.386;-3.210;2024-03-08T03:24:24;93146.31;;;2.65;100.00
80988;BME280;70452;39.386;-3.210;2024-03-08T03:27:04;93137.41;;;2.65;100.00
80988;BME280;70452;39.386;-3.210;2024-03-08T03:29:44;93139.31;;;2.69;100.00
80988;BME280;70452;39.386;-3.210;2024-03-08T03:32:17;93142.25;;;2.68;100.00
80988;BME280;70452;39.386;-3.210;2024-03-08T03:35:00;93131.00;;;2.71;100.00
80988;BME280;70452;39.386;-3.210;2024-03-08T03:37:48;93128.56;;;2.69;100.00
80988;BME280;70452;39.386;-3.210;2024-03-08T03:40:45;93127.75;;;2.69;100.00
80988;BME280;70452;39.386;-3.210;2024-03-08T03:43:19;93134.50;;;2.76;100.00
80988;BME280;70452;39.386;-3.210;2024-03-08T03:45:59;93131.00;;;2.71;100.00
80988;BME280;70452;39.386;-3.210;2024-03-08T03:48:34;93137.75;;;2.78;100.00
80988;BME280;70452;39.386;-3.210;2024-03-08T03:51:12;93130.78;;;2.83;100.00
80988;BME280;70452;39.386;-3.210;2024-03-08T03:53:57;93125.97;;;2.90;100.00
80988;BME280;70452;39.386;-3.210;2024-03-08T03:56:51;93125.97;;;2.90;100.00
80988;BME280;70452;39.386;-3.210;2024-03-08T03:59:28;93120.53;;;2.79;100.00
80988;BME280;70452;39.386;-3.210;2024-03-08T04:02:01;93117.13;;;2.94;100.00
80988;BME280;70452;39.386;-3.210;2024-03-08T04:04:39;93103.38;;;2.91;100.00
80988;BME280;70452;39.386;-3.210;2024-03-08T04:07:14;93113.09;;;3.02;100.00
80988;BME280;70452;39.386;-3.210;2024-03-08T04:09:46;93114.50;;;3.10;100.00
80988;BME280;70452;39.386;-3.210;2024-03-08T04:12:23;93116.69;;;3.23;100.00
80988;BME280;70452;39.386;-3.210;2024-03-08T04:15:06;93106.47;;;3.25;100.00
80988;BME280;70452;39.386;-3.210;2024-03-08T04:17:36;93105.38;;;3.26;100.00
80988;BME280;70452;39.386;-3.210;2024-03-08T04:20:05;93104.84;;;3.24;100.00
80988;BME280;70452;39.386;-3.210;2024-03-08T04:22:36;93095.19;;;3.44;100.00
80988;BME280;70452;39.386;-3.210;2024-03-08T04:25:09;93096.81;;;3.40;100.00
80988;BME280;70452;39.386;-3.210;2024-03-08T04:27:42;93096.78;;;3.29;100.00
80988;BME280;70452;39.386;-3.210;2024-03-08T04:30:43;93102.41;;;3.23;100.00
80988;BME280;70452;39.386;-3.210;2024-03-08T04:33:30;93102.69;;;3.26;100.00
80988;BME280;70452;39.386;-3.210;2024-03-08T04:36:04;93103.19;;;3.18;100.00
80988;BME280;70452;39.386;-3.210;2024-03-08T04:38:33;93107.81;;;3.28;100.00
80988;BME280;70452;39.386;-3.210;2024-03-08T04:41:08;93106.75;;;3.29;100.00
80988;BME280;70452;39.386;-3.210;2024-03-08T04:43:40;93105.34;;;3.16;100.00
80988;BME280;70452;39.386;-3.210;2024-03-08T04:46:10;93115.84;;;3.12;100.00
80988;BME280;70452;39.386;-3.210;2024-03-08T04:48:38;93112.91;;;3.19;100.00
80988;BME280;70452;39.386;-3.210;2024-03-08T04:51:04;93108.91;;;3.22;100.00
80988;BME280;70452;39.386;-3.210;2024-03-08T04:53:41;93114.28;;;3.22;100.00
80988;BME280;70452;39.386;-3.210;2024-03-08T04:59:04;93112.91;;;3.19;100.00
80988;BME280;70452;39.386;-3.210;2024-03-08T05:01:36;93112.63;;;3.15;100.00
80988;BME280;70452;39.386;-3.210;2024-03-08T05:04:08;93108.31;;;3.14;100.00
80988;BME280;70452;39.386;-3.210;2024-03-08T05:06:48;93109.91;;;3.05;100.00
80988;BME280;70452;39.386;-3.210;2024-03-08T05:09:25;93103.72;;;3.05;100.00
80988;BME280;70452;39.386;-3.210;2024-03-08T05:11:54;93105.88;;;3.13;100.00
80988;BME280;70452;39.386;-3.210;2024-03-08T05:14:34;93115.09;;;3.22;100.00
80988;BME280;70452;39.386;-3.210;2024-03-08T05:17:13;93104.06;;;3.24;100.00
80988;BME280;70452;39.386;-3.210;2024-03-08T05:20:03;93113.19;;;3.23;100.00
80988;BME280;70452;39.386;-3.210;2024-03-08T05:22:39;93106.22;;;3.27;100.00
80988;BME280;70452;39.386;-3.210;2024-03-08T05:25:19;93107.28;;;3.26;100.00
80988;BME280;70452;39.386;-3.210;2024-03-08T05:27:57;93093.28;;;3.24;100.00
80988;BME280;70452;39.386;-3.210;2024-03-08T05:30:31;93110.75;;;3.16;100.00
80988;BME280;70452;39.386;-3.210;2024-03-08T05:33:05;93109.13;;;3.15;100.00
80988;BME280;70452;39.386;-3.210;2024-03-08T05:35:33;93110.50;;;3.23;100.00
80988;BME280;70452;39.386;-3.210;2024-03-08T05:38:15;93111.84;;;3.15;100.00
80988;BME280;70452;39.386;-3.210;2024-03-08T05:40:59;93113.44;;;3.16;100.00
80988;BME280;70452;39.386;-3.210;2024-03-08T05:43:53;93115.09;;;3.27;100.00
80988;BME280;70452;39.386;-3.210;2024-03-08T05:46:29;93110.50;;;3.23;100.00
80988;BME280;70452;39.386;-3.210;2024-03-08T05:48:57;93114.25;;;3.16;100.00
80988;BME280;70452;39.386;-3.210;2024-03-08T05:51:27;93110.25;;;3.24;100.00
80988;BME280;70452;39.386;-3.210;2024-03-08T05:54:04;93106.22;;;3.27;100.00
80988;BME280;70452;39.386;-3.210;2024-03-08T05:56:49;93111.38;;;3.44;100.00
80988;BME280;70452;39.386;-3.210;2024-03-08T05:59:40;93110.25;;;3.29;100.00
80988;BME280;70452;39.386;-3.210;2024-03-08T06:02:16;93108.94;;;3.32;100.00
80988;BME280;70452;39.386;-3.210;2024-03-08T06:05:09;93110.50;;;3.23;100.00
80988;BME280;70452;39.386;-3.210;2024-03-08T06:07:49;93104.63;;;3.36;100.00
80988;BME280;70452;39.386;-3.210;2024-03-08T06:10:27;93112.97;;;3.40;100.00
80988;BME280;70452;39.386;-3.210;2024-03-08T06:12:58;93109.72;;;3.32;100.00
80988;BME280;70452;39.386;-3.210;2024-03-08T06:15:30;93116.16;;;3.26;100.00
80988;BME280;70452;39.386;-3.210;2024-03-08T06:18:13;93107.03;;;3.27;100.00
80988;BME280;70452;39.386;-3.210;2024-03-08T06:20:53;93125.34;;;3.25;100.00
80988;BME280;70452;39.386;-3.210;2024-03-08T06:23:27;93122.09;;;3.28;100.00
80988;BME280;70452;39.386;-3.210;2024-03-08T06:26:22;93118.06;;;3.31;100.00
80988;BME280;70452;39.386;-3.210;2024-03-08T06:29:04;93126.16;;;3.31;100.00
80988;BME280;70452;39.386;-3.210;2024-03-08T06:31:38;93126.44;;;3.34;100.00
80988;BME280;70452;39.386;-3.210;2024-03-08T06:34:12;93120.00;;;3.41;100.00
80988;BME280;70452;39.386;-3.210;2024-03-08T06:36:40;93121.84;;;3.35;100.00
80988;BME280;70452;39.386;-3.210;2024-03-08T06:39:14;93130.53;;;3.47;100.00
80988;BME280;70452;39.386;-3.210;2024-03-08T06:41:49;93123.22;;;3.37;100.00
80988;BME280;70452;39.386;-3.210;2024-03-08T06:44:22;93127.59;;;3.64;100.00
80988;BME280;70452;39.386;-3.210;2024-03-08T06:46:56;93126.03;;;3.89;100.00
80988;BME280;70452;39.386;-3.210;2024-03-08T06:49:32;93126.56;;;4.01;100.00
80988;BME280;70452;39.386;-3.210;2024-03-08T06:52:10;93139.53;;;4.15;100.00
80988;BME280;70452;39.386;-3.210;2024-03-08T06:54:37;93137.63;;;4.25;100.00
80988;BME280;70452;39.386;-3.210;2024-03-08T06:57:09;93132.25;;;4.30;100.00
80988;BME280;70452;39.386;-3.210;2024-03-08T06:59:57;93139.81;;;4.34;100.00
80988;BME280;70452;39.386;-3.210;2024-03-08T07:02:28;93146.00;;;4.34;100.00
80988;BME280;70452;39.386;-3.210;2024-03-08T07:04:54;93152.47;;;4.38;100.00
80988;BME280;70452;39.386;-3.210;2024-03-08T07:07:32;93158.97;;;4.42;100.00
80988;BME280;70452;39.386;-3.210;2024-03-08T07:10:17;93166.78;;;4.44;100.00
80988;BME280;70452;39.386;-3.210;2024-03-08T07:12:48;93177.56;;;4.44;100.00
80988;BME280;70452;39.386;-3.210;2024-03-08T07:15:22;93168.66;;;4.38;100.00
80988;BME280;70452;39.386;-3.210;2024-03-08T07:18:02;93178.38;;;4.39;100.00
80988;BME280;70452;39.386;-3.210;2024-03-08T07:20:34;93174.59;;;4.45;100.00
80988;BME280;70452;39.386;-3.210;2024-03-08T07:23:06;93190.81;;;4.45;100.00
80988;BME280;70452;39.386;-3.210;2024-03-08T07:25:38;93188.91;;;4.41;100.00
80988;BME280;70452;39.386;-3.210;2024-03-08T07:28:08;93182.41;;;4.42;100.00
80988;BME280;70452;39.386;-3.210;2024-03-08T07:30:36;93202.66;;;4.49;100.00
80988;BME280;70452;39.386;-3.210;2024-03-08T07:33:17;93204.00;;;4.57;100.00
80988;BME280;70452;39.386;-3.210;2024-03-08T07:35:57;93214.25;;;4.65;100.00
80988;BME280;70452;39.386;-3.210;2024-03-08T07:38:37;93203.19;;;4.62;100.00
80988;BME280;70452;39.386;-3.210;2024-03-08T07:41:08;93200.50;;;4.67;100.00
80988;BME280;70452;39.386;-3.210;2024-03-08T07:43:39;93199.69;;;4.72;100.00
80988;BME280;70452;39.386;-3.210;2024-03-08T07:46:12;93208.31;;;4.74;100.00
80988;BME280;70452;39.386;-3.210;2024-03-08T07:48:47;93217.22;;;4.79;100.00
80988;BME280;70452;39.386;-3.210;2024-03-08T07:54:24;93231.25;;;4.92;100.00
80988;BME280;70452;39.386;-3.210;2024-03-08T07:56:58;93246.66;;;4.91;100.00
80988;BME280;70452;39.386;-3.210;2024-03-08T07:59:36;93234.22;;;5.00;100.00
80988;BME280;70452;39.386;-3.210;2024-03-08T08:02:10;93238.78;;;5.15;100.00
80988;BME280;70452;39.386;-3.210;2024-03-08T08:04:39;93233.66;;;5.14;100.00
80988;BME280;70452;39.386;-3.210;2024-03-08T08:07:14;93241.22;;;5.12;100.00
80988;BME280;70452;39.386;-3.210;2024-03-08T08:10:01;93240.16;;;5.13;100.00
80988;BME280;70452;39.386;-3.210;2024-03-08T08:12:44;93247.16;;;5.14;100.00
80988;BME280;70452;39.386;-3.210;2024-03-08T08:15:30;93245.28;;;5.09;100.00
80988;BME280;70452;39.386;-3.210;2024-03-08T08:18:01;93258.22;;;5.07;100.00
80988;BME280;70452;39.386;-3.210;2024-03-08T08:20:56;93260.41;;;5.10;100.00
80988;BME280;70452;39.386;-3.210;2024-03-08T08:23:44;93269.88;;;5.13;100.00
80988;BME280;70452;39.386;-3.210;2024-03-08T08:26:32;93269.03;;;5.17;100.00
80988;BME280;70452;39.386;-3.210;2024-03-08T08:29:05;93283.38;;;5.02;100.00
80988;BME280;70452;39.386;-3.210;2024-03-08T08:31:32;93281.47;;;5.03;100.00
80988;BME280;70452;39.386;-3.210;2024-03-08T08:34:09;93287.69;;;5.03;100.00
80988;BME280;70452;39.386;-3.210;2024-03-08T08:36:38;93273.38;;;5.03;100.00
80988;BME280;70452;39.386;-3.210;2024-03-08T08:39:10;93278.78;;;5.08;100.00
80988;BME280;70452;39.386;-3.210;2024-03-08T08:41:44;93293.34;;;5.07;100.00
80988;BME280;70452;39.386;-3.210;2024-03-08T08:44:10;93284.16;;;5.29;100.00
80988;BME280;70452;39.386;-3.210;2024-03-08T08:46:50;93291.41;;;5.54;100.00
80988;BME280;70452;39.386;-3.210;2024-03-08T08:49:32;93279.44;;;5.80;100.00
80988;BME280;70452;39.386;-3.210;2024-03-08T08:52:01;93283.75;;;5.97;100.00
80988;BME280;70452;39.386;-3.210;2024-03-08T08:54:32;93283.44;;;6.09;100.00
80988;BME280;70452;39.386;-3.210;2024-03-08T08:57:03;93285.25;;;6.18;100.00
80988;BME280;70452;39.386;-3.210;2024-03-08T08:59:38;93277.91;;;6.29;100.00
80988;BME280;70452;39.386;-3.210;2024-03-08T09:02:16;93289.75;;;6.38;100.00
80988;BME280;70452;39.386;-3.210;2024-03-08T09:04:49;93288.22;;;6.22;100.00
80988;BME280;70452;39.386;-3.210;2024-03-08T09:07:18;93292.84;;;6.16;100.00
80988;BME280;70452;39.386;-3.210;2024-03-08T09:09:50;93308.25;;;6.21;100.00
80988;BME280;70452;39.386;-3.210;2024-03-08T09:12:21;93301.94;;;6.36;100.00
80988;BME280;70452;39.386;-3.210;2024-03-08T09:14:50;93307.00;;;6.53;100.00
80988;BME280;70452;39.386;-3.210;2024-03-08T09:17:32;93292.31;;;6.64;100.00
80988;BME280;70452;39.386;-3.210;2024-03-08T09:20:19;93293.44;;;6.58;100.00
80988;BME280;70452;39.386;-3.210;2024-03-08T09:23:06;93294.19;;;6.69;100.00
80988;BME280;70452;39.386;-3.210;2024-03-08T09:25:36;93299.94;;;6.62;100.00
80988;BME280;70452;39.386;-3.210;2024-03-08T09:28:03;93300.69;;;6.68;100.00
80988;BME280;70452;39.386;-3.210;2024-03-08T09:30:37;93302.25;;;6.79;100.00
80988;BME280;70452;39.386;-3.210;2024-03-08T09:33:06;93294.47;;;7.07;100.00
80988;BME280;70452;39.386;-3.210;2024-03-08T09:35:37;93287.81;;;7.23;100.00
80988;BME280;70452;39.386;-3.210;2024-03-08T09:38:08;93286.03;;;7.43;100.00
80988;BME280;70452;39.386;-3.210;2024-03-08T09:40:47;93284.44;;;7.37;100.00
80988;BME280;70452;39.386;-3.210;2024-03-08T09:43:27;93283.88;;;7.10;100.00
80988;BME280;70452;39.386;-3.210;2024-03-08T09:45:56;93283.34;;;7.08;100.00
80988;BME280;70452;39.386;-3.210;2024-03-08T09:48:38;93286.50;;;7.21;100.00
80988;BME280;70452;39.386;-3.210;2024-03-08T09:51:18;93286.69;;;7.29;100.00
80988;BME280;70452;39.386;-3.210;2024-03-08T09:53:49;93285.38;;;7.51;100.00
80988;BME280;70452;39.386;-3.210;2024-03-08T09:56:23;93291.28;;;7.87;100.00
80988;BME280;70452;39.386;-3.210;2024-03-08T09:58:59;93287.56;;;8.02;100.00
80988;BME280;70452;39.386;-3.210;2024-03-08T10:04:38;93287.22;;;7.85;100.00
80988;BME280;70452;39.386;-3.210;2024-03-08T10:07:23;93282.03;;;7.88;100.00
80988;BME280;70452;39.386;-3.210;2024-03-08T10:09:59;93289.69;;;8.05;100.00
80988;BME280;70452;39.386;-3.210;2024-03-08T10:12:28;93292.97;;;8.26;100.00
80988;BME280;70452;39.386;-3.210;2024-03-08T10:15:02;93284.31;;;8.00;100.00
80988;BME280;70452;39.386;-3.210;2024-03-08T10:17:33;93293.53;;;7.75;100.00
80988;BME280;70452;39.386;-3.210;2024-03-08T10:20:25;93289.88;;;7.90;100.00
80988;BME280;70452;39.386;-3.210;2024-03-08T10:22:56;93291.91;;;7.79;100.00
80988;BME280;70452;39.386;-3.210;2024-03-08T10:25:24;93285.63;;;7.55;100.00
80988;BME280;70452;39.386;-3.210;2024-03-08T10:27:59;93285.94;;;7.24;100.00
80988;BME280;70452;39.386;-3.210;2024-03-08T10:30:38;93287.56;;;7.20;100.00
80988;BME280;70452;39.386;-3.210;2024-03-08T10:33:03;93279.13;;;7.26;100.00
80988;BME280;70452;39.386;-3.210;2024-03-08T10:35:37;93281.00;;;7.84;100.00
80988;BME280;70452;39.386;-3.210;2024-03-08T10:38:04;93270.38;;;8.31;100.00
80988;BME280;70452;39.386;-3.210;2024-03-08T10:40:37;93257.38;;;8.71;100.00
80988;BME280;70452;39.386;-3.210;2024-03-08T10:43:24;93272.91;;;9.04;100.00
80988;BME280;70452;39.386;-3.210;2024-03-08T10:46:21;93275.38;;;9.19;100.00
80988;BME280;70452;39.386;-3.210;2024-03-08T10:48:55;93270.16;;;9.23;100.00
80988;BME280;70452;39.386;-3.210;2024-03-08T10:51:34;93266.34;;;9.24;100.00
80988;BME280;70452;39.386;-3.210;2024-03-08T10:54:10;93284.09;;;9.35;100.00
80988;BME280;70452;39.386;-3.210;2024-03-08T10:56:40;93276.94;;;9.25;100.00
80988;BME280;70452;39.386;-3.210;2024-03-08T10:59:12;93276.19;;;9.19;100.00
80988;BME280;70452;39.386;-3.210;2024-03-08T11:01:47;93282.03;;;8.94;100.00
80988;BME280;70452;39.386;-3.210;2024-03-08T11:04:23;93294.88;;;9.07;100.00
80988;BME280;70452;39.386;-3.210;2024-03-08T11:07:21;93291.06;;;9.41;100.00
80988;BME280;70452;39.386;-3.210;2024-03-08T11:09:52;93298.59;;;9.77;100.00
80988;BME280;70452;39.386;-3.210;2024-03-08T11:12:22;93291.34;;;9.86;100.00
80988;BME280;70452;39.386;-3.210;2024-03-08T11:14:55;93296.09;;;9.94;100.00
80988;BME280;70452;39.386;-3.210;2024-03-08T11:20:14;93292.09;;;10.06;100.00
80988;BME280;70452;39.386;-3.210;2024-03-08T11:22:51;93295.31;;;10.08;100.00
80988;BME280;70452;39.386;-3.210;2024-03-08T11:25:45;93297.06;;;10.31;100.00
80988;BME280;70452;39.386;-3.210;2024-03-08T11:28:33;93291.91;;;10.30;100.00
80988;BME280;70452;39.386;-3.210;2024-03-08T11:33:42;93290.97;;;10.48;100.00
80988;BME280;70452;39.386;-3.210;2024-03-08T11:36:27;93285.16;;;10.92;100.00
80988;BME280;70452;39.386;-3.210;2024-03-08T11:39:00;93291.50;;;11.23;100.00
80988;BME280;70452;39.386;-3.210;2024-03-08T11:41:37;93284.97;;;11.24;100.00
80988;BME280;70452;39.386;-3.210;2024-03-08T11:44:07;93276.50;;;11.12;100.00
80988;BME280;70452;39.386;-3.210;2024-03-08T11:46:38;93275.44;;;11.44;100.00
80988;BME280;70452;39.386;-3.210;2024-03-08T11:49:14;93263.41;;;11.68;100.00
80988;BME280;70452;39.386;-3.210;2024-03-08T11:51:47;93265.28;;;11.59;100.00
80988;BME280;70452;39.386;-3.210;2024-03-08T11:54:30;93260.88;;;11.49;100.00
80988;BME280;70452;39.386;-3.210;2024-03-08T11:57:05;93263.13;;;11.47;100.00
80988;BME280;70452;39.386;-3.210;2024-03-08T11:59:40;93270.59;;;11.41;99.06
80988;BME280;70452;39.386;-3.210;2024-03-08T12:02:24;93259.41;;;10.98;98.22
80988;BME280;70452;39.386;-3.210;2024-03-08T12:04:57;93264.69;;;10.80;98.07
80988;BME280;70452;39.386;-3.210;2024-03-08T12:07:44;93269.97;;;10.77;100.00
80988;BME280;70452;39.386;-3.210;2024-03-08T12:10:17;93265.41;;;10.72;100.00
80988;BME280;70452;39.386;-3.210;2024-03-08T12:12:51;93252.41;;;10.69;100.00
80988;BME280;70452;39.386;-3.210;2024-03-08T12:15:37;93242.53;;;10.73;95.38
80988;BME280;70452;39.386;-3.210;2024-03-08T12:18:18;93249.09;;;10.58;96.61
80988;BME280;70452;39.386;-3.210;2024-03-08T12:20:44;93235.50;;;10.30;94.98
80988;BME280;70452;39.386;-3.210;2024-03-08T12:23:18;93247.31;;;10.26;96.32
80988;BME280;70452;39.386;-3.210;2024-03-08T12:25:50;93248.63;;;10.14;99.62
80988;BME280;70452;39.386;-3.210;2024-03-08T12:28:25;93246.41;;;10.30;97.67
80988;BME280;70452;39.386;-3.210;2024-03-08T12:31:00;93242.34;;;10.28;97.39
80988;BME280;70452;39.386;-3.210;2024-03-08T12:33:30;93237.97;;;10.32;99.08
80988;BME280;70452;39.386;-3.210;2024-03-08T12:35:59;93241.38;;;10.24;99.11
80988;BME280;70452;39.386;-3.210;2024-03-08T12:38:34;93245.28;;;9.76;100.00
80988;BME280;70452;39.386;-3.210;2024-03-08T12:41:05;93245.28;;;9.62;100.00
80988;BME280;70452;39.386;-3.210;2024-03-08T12:43:30;93237.22;;;9.57;100.00
80988;BME280;70452;39.386;-3.210;2024-03-08T12:45:59;93243.97;;;9.46;100.00
80988;BME280;70452;39.386;-3.210;2024-03-08T12:48:46;93243.47;;;9.57;100.00
80988;BME280;70452;39.386;-3.210;2024-03-08T12:51:17;93237.03;;;9.67;100.00
80988;BME280;70452;39.386;-3.210;2024-03-08T12:53:58;93235.53;;;9.61;100.00
80988;BME280;70452;39.386;-3.210;2024-03-08T12:56:39;93227.00;;;9.49;100.00
80988;BME280;70452;39.386;-3.210;2024-03-08T12:59:06;93222.44;;;9.77;100.00
80988;BME280;70452;39.386;-3.210;2024-03-08T13:01:44;93213.88;;;9.84;100.00
80988;BME280;70452;39.386;-3.210;2024-03-08T13:04:28;93222.31;;;9.82;100.00
80988;BME280;70452;39.386;-3.210;2024-03-08T13:07:07;93217.16;;;10.08;100.00
80988;BME280;70452;39.386;-3.210;2024-03-08T13:09:40;93221.94;;;10.03;100.00
80988;BME280;70452;39.386;-3.210;2024-03-08T13:12:14;93222.13;;;9.79;100.00
80988;BME280;70452;39.386;-3.210;2024-03-08T13:14:52;93216.38;;;9.94;100.00
80988;BME280;70452;39.386;-3.210;2024-03-08T13:17:27;93216.28;;;9.99;100.00
80988;BME280;70452;39.386;-3.210;2024-03-08T13:19:54;93220.31;;;10.02;100.00
80988;BME280;70452;39.386;-3.210;2024-03-08T13:22:29;93214.34;;;10.13;100.00
80988;BME280;70452;39.386;-3.210;2024-03-08T13:24:58;93205.13;;;10.51;96.89
80988;BME280;70452;39.386;-3.210;2024-03-08T13:27:32;93208.75;;;10.83;94.29
80988;BME280;70452;39.386;-3.210;2024-03-08T13:29:58;93205.50;;;10.58;91.16
80988;BME280;70452;39.386;-3.210;2024-03-08T13:32:32;93213.34;;;10.37;93.63
80988;BME280;70452;39.386;-3.210;2024-03-08T13:35:01;93206.25;;;10.22;97.79
80988;BME280;70452;39.386;-3.210;2024-03-08T13:37:35;93189.25;;;10.17;98.18
80988;BME280;70452;39.386;-3.210;2024-03-08T13:40:09;93189.56;;;10.01;100.00
80988;BME280;70452;39.386;-3.210;2024-03-08T13:42:58;93184.13;;;10.01;99.42
80988;BME280;70452;39.386;-3.210;2024-03-08T13:45:31;93177.34;;;10.12;97.86
80988;BME280;70452;39.386;-3.210;2024-03-08T13:48:03;93163.94;;;10.16;99.45
80988;BME280;70452;39.386;-3.210;2024-03-08T13:50:34;93167.16;;;10.32;97.78
80988;BME280;70452;39.386;-3.210;2024-03-08T13:53:13;93166.94;;;10.28;96.82